createdAt,value
2023-01-13T00:02:14.748Z,73.02
2023-01-13T00:04:48.543Z,73.18
2023-01-13T00:07:21.796Z,72.03
2023-01-13T00:09:56.303Z,71.66
2023-01-13T00:12:29.551Z,71.65
2023-01-13T00:15:02.791Z,72.71
2023-01-13T00:17:35.998Z,74.15
2023-01-13T00:20:11.963Z,71.53
2023-01-13T00:22:45.167Z,71.61
2023-01-13T00:25:19.724Z,71.31
2023-01-13T00:27:52.914Z,71.57
2023-01-13T00:30:26.135Z,71.40
2023-01-13T00:32:59.329Z,71.77
2023-01-13T00:35:32.554Z,71.93
2023-01-13T00:38:05.852Z,71.78
2023-01-13T00:40:40.362Z,71.63
2023-01-13T00:43:24.619Z,72.53
2023-01-13T00:45:57.845Z,71.57
2023-01-13T00:48:32.627Z,71.60
2023-01-13T00:51:09.972Z,71.86
2023-01-13T00:53:45.733Z,72.17
2023-01-13T00:56:38.661Z,71.28
2023-01-13T00:59:14.579Z,72.06
2023-01-13T01:01:47.868Z,72.66
2023-01-13T01:04:21.140Z,71.99
2023-01-13T01:06:54.400Z,71.63
2023-01-13T01:09:32.746Z,71.73
2023-01-13T01:12:07.810Z,72.13
2023-01-13T01:14:41.127Z,71.93
2023-01-13T01:17:14.458Z,71.51
2023-01-13T01:19:47.648Z,70.86
2023-01-13T01:22:20.823Z,72.21
2023-01-13T01:24:54.007Z,71.64
2023-01-13T01:27:28.535Z,72.69
2023-01-13T01:30:01.895Z,71.73
2023-01-13T01:32:35.391Z,72.61
2023-01-13T01:35:09.639Z,71.33
2023-01-13T01:37:42.827Z,73.53
2023-01-13T01:40:16.274Z,73.28
2023-01-13T01:43:07.675Z,71.63
2023-01-13T01:45:40.806Z,72.32
2023-01-13T01:48:14.144Z,71.88
2023-01-13T01:50:47.455Z,72.19
2023-01-13T01:53:23.085Z,71.42
2023-01-13T01:55:57.400Z,72.32
2023-01-13T01:58:37.762Z,72.63
2023-01-13T02:01:11.482Z,71.83
2023-01-13T02:03:48.680Z,71.98
2023-01-13T02:06:22.002Z,71.23
2023-01-13T02:08:55.387Z,71.00
2023-01-13T02:11:50.924Z,71.15
2023-01-13T02:14:28.707Z,72.83
2023-01-13T02:17:19.489Z,72.85
2023-01-13T02:21:00.546Z,73.57
2023-01-13T02:24:37.081Z,72.17
2023-01-13T02:27:38.284Z,72.97
2023-01-13T02:30:45.618Z,72.85
2023-01-13T02:33:35.910Z,72.90
2023-01-13T02:36:23.298Z,74.08
2023-01-13T02:39:02.509Z,73.32
2023-01-13T02:42:00.127Z,72.62
2023-01-13T02:44:43.694Z,74.27
2023-01-13T02:47:22.742Z,73.74
2023-01-13T02:50:00.338Z,72.80
2023-01-13T02:52:38.147Z,73.49
2023-01-13T02:55:16.645Z,73.61
2023-01-13T02:57:50.910Z,73.78
2023-01-13T03:00:24.967Z,73.47
2023-01-13T03:02:59.605Z,74.85
2023-01-13T03:05:34.403Z,73.56
2023-01-13T03:08:21.640Z,72.87
2023-01-13T03:11:03.860Z,71.85
2023-01-13T03:14:05.768Z,72.75
2023-01-13T03:17:01.780Z,73.36
2023-01-13T03:19:45.848Z,73.51
2023-01-13T03:22:27.618Z,73.86
2023-01-13T03:25:09.538Z,73.22
2023-01-13T03:27:49.939Z,73.70
2023-01-13T03:30:29.788Z,73.10
2023-01-13T03:33:07.770Z,73.08
2023-01-13T03:35:46.265Z,73.36
2023-01-13T03:38:23.262Z,73.22
2023-01-13T03:40:59.823Z,73.25
2023-01-13T03:43:56.014Z,73.65
2023-01-13T03:46:35.064Z,74.74
2023-01-13T03:49:10.987Z,74.35
2023-01-13T03:51:53.658Z,73.37
2023-01-13T03:54:31.857Z,73.58
2023-01-13T03:57:10.621Z,73.34
2023-01-13T03:59:49.859Z,73.43
2023-01-13T04:02:37.575Z,73.29
2023-01-13T04:05:11.709Z,73.66
2023-01-13T04:07:57.705Z,73.82
2023-01-13T04:10:36.626Z,73.96
2023-01-13T04:13:14.131Z,73.74
2023-01-13T04:15:48.216Z,74.16
2023-01-13T04:18:26.015Z,73.94
2023-01-13T04:21:02.412Z,74.40
2023-01-13T04:23:36.919Z,73.93
2023-01-13T04:26:09.970Z,74.75
2023-01-13T04:28:43.004Z,73.74
2023-01-13T04:31:16.124Z,74.12
2023-01-13T04:33:49.233Z,74.07
2023-01-13T04:36:25.115Z,74.19
2023-01-13T04:38:59.622Z,74.26
2023-01-13T04:41:52.762Z,74.02
2023-01-13T04:44:25.969Z,73.87
2023-01-13T04:46:59.493Z,74.24
2023-01-13T04:49:33.360Z,74.28
2023-01-13T04:52:07.000Z,74.15
2023-01-13T04:54:41.434Z,74.88
2023-01-13T04:57:14.478Z,74.08
2023-01-13T04:59:47.517Z,74.34
2023-01-13T05:02:20.865Z,74.75
2023-01-13T05:04:54.065Z,74.19
2023-01-13T05:07:27.309Z,75.47
2023-01-13T05:10:01.793Z,75.93
2023-01-13T05:12:52.654Z,75.49
2023-01-13T05:15:43.067Z,75.75
2023-01-13T05:18:17.479Z,74.72
2023-01-13T05:20:51.531Z,74.48
2023-01-13T05:23:42.354Z,74.52
2023-01-13T05:26:16.740Z,75.07
2023-01-13T05:28:49.798Z,74.73
2023-01-13T05:31:22.942Z,74.89
2023-01-13T05:33:56.052Z,75.24
2023-01-13T05:36:29.160Z,75.13
2023-01-13T05:39:02.274Z,74.22
2023-01-13T05:41:54.532Z,73.67
2023-01-13T05:44:27.761Z,74.49
2023-01-13T05:47:00.816Z,73.22
2023-01-13T05:49:34.012Z,74.46
2023-01-13T05:52:07.096Z,73.43
2023-01-13T05:54:41.218Z,74.54
2023-01-13T05:57:15.831Z,73.08
2023-01-13T05:59:49.124Z,73.35
2023-01-13T06:02:22.199Z,74.07
2023-01-13T06:04:55.333Z,72.93
2023-01-13T06:07:28.400Z,73.77
2023-01-13T06:10:01.523Z,72.61
2023-01-13T06:12:37.126Z,73.01
2023-01-13T06:15:11.256Z,73.60
2023-01-13T06:17:44.347Z,73.13
2023-01-13T06:20:18.777Z,72.74
2023-01-13T06:22:53.693Z,72.12
2023-01-13T06:25:37.873Z,72.89
2023-01-13T06:28:12.322Z,72.80
2023-01-13T06:30:50.531Z,72.55
2023-01-13T06:33:29.694Z,72.50
2023-01-13T06:36:07.630Z,73.07
2023-01-13T06:38:44.373Z,73.17
2023-01-13T06:41:18.170Z,73.32
2023-01-13T06:43:51.589Z,74.24
2023-01-13T06:46:24.757Z,74.33
2023-01-13T06:48:57.916Z,74.85
2023-01-13T06:51:31.048Z,73.93
2023-01-13T06:54:04.385Z,74.80
2023-01-13T06:56:37.456Z,75.28
2023-01-13T06:59:12.018Z,74.75
2023-01-13T07:01:45.264Z,75.56
2023-01-13T07:04:18.879Z,76.49
2023-01-13T07:06:51.931Z,75.30
2023-01-13T07:09:24.961Z,75.25
2023-01-13T07:11:58.485Z,74.33
2023-01-13T07:14:50.650Z,74.30
2023-01-13T07:17:25.290Z,75.25
2023-01-13T07:19:58.841Z,74.70
2023-01-13T07:22:31.879Z,74.89
2023-01-13T07:25:05.706Z,74.76
2023-01-13T07:27:38.795Z,75.72
2023-01-13T07:30:14.795Z,75.22
2023-01-13T07:32:47.905Z,75.33
2023-01-13T07:35:23.465Z,75.33
2023-01-13T07:37:56.530Z,75.32
2023-01-13T07:40:29.580Z,75.35
2023-01-13T07:43:20.413Z,75.32
2023-01-13T07:45:59.435Z,75.31
2023-01-13T07:48:34.900Z,75.95
2023-01-13T07:51:10.959Z,75.74
2023-01-13T07:53:44.125Z,74.41
2023-01-13T07:56:17.487Z,75.69
2023-01-13T07:58:52.908Z,75.93
2023-01-13T08:01:28.774Z,74.74
2023-01-13T08:04:01.977Z,74.81
2023-01-13T08:06:36.452Z,75.35
2023-01-13T08:09:10.209Z,75.89
2023-01-13T08:11:43.281Z,76.62
2023-01-13T08:14:16.389Z,75.82
2023-01-13T08:16:50.940Z,75.36
2023-01-13T08:19:24.063Z,75.30
2023-01-13T08:21:57.872Z,75.18
2023-01-13T08:24:30.961Z,75.62
2023-01-13T08:27:04.049Z,74.80
2023-01-13T08:29:37.099Z,75.46
2023-01-13T08:32:11.536Z,75.13
2023-01-13T08:34:44.615Z,76.19
2023-01-13T08:37:17.718Z,77.15
2023-01-13T08:39:50.971Z,76.01
2023-01-13T08:42:24.541Z,75.47
2023-01-13T08:44:57.858Z,76.19
2023-01-13T08:47:32.300Z,76.03
2023-01-13T08:50:06.862Z,76.30
2023-01-13T08:52:39.956Z,76.99
2023-01-13T08:55:13.366Z,77.00
2023-01-13T08:57:46.428Z,76.18
2023-01-13T09:00:20.123Z,77.32
2023-01-13T09:02:54.540Z,79.90
2023-01-13T09:05:27.560Z,82.16
2023-01-13T09:08:00.682Z,84.88
2023-01-13T09:10:33.830Z,87.06
2023-01-13T09:13:11.709Z,90.12
2023-01-13T09:15:47.399Z,91.04
2023-01-13T09:18:21.982Z,90.51
2023-01-13T09:20:55.061Z,89.25
2023-01-13T09:23:28.171Z,91.90
2023-01-13T09:26:01.320Z,91.46
2023-01-13T09:28:34.403Z,91.72
2023-01-13T09:31:07.610Z,90.39
2023-01-13T09:33:59.692Z,89.76
2023-01-13T09:36:32.783Z,88.54
2023-01-13T09:39:06.680Z,89.60
2023-01-13T09:42:09.655Z,91.50
2023-01-13T09:44:50.066Z,89.83
2023-01-13T09:47:28.741Z,91.32
2023-01-13T09:50:23.172Z,91.87
2023-01-13T09:52:56.823Z,93.85
2023-01-13T09:55:36.812Z,91.82
2023-01-13T09:58:15.098Z,89.33
2023-01-13T10:00:59.205Z,90.34
2023-01-13T10:03:34.853Z,90.12
2023-01-13T10:06:16.226Z,91.05
2023-01-13T10:08:51.097Z,90.27
2023-01-13T10:11:43.872Z,92.40
2023-01-13T10:14:20.868Z,92.11
2023-01-13T10:17:06.187Z,89.60
2023-01-13T10:19:44.835Z,90.22
2023-01-13T10:22:41.583Z,89.31
2023-01-13T10:25:26.140Z,89.94
2023-01-13T10:28:10.666Z,90.30
2023-01-13T10:30:46.587Z,92.37
2023-01-13T10:33:26.952Z,91.97
2023-01-13T10:36:03.335Z,93.18
2023-01-13T10:38:41.203Z,92.46
2023-01-13T10:41:26.910Z,95.87
2023-01-13T10:44:04.269Z,96.64
2023-01-13T10:46:53.312Z,99.54
2023-01-13T10:49:33.872Z,100.00
2023-01-13T10:52:29.013Z,100.00
2023-01-13T10:55:04.008Z,100.00
2023-01-13T10:57:37.933Z,100.00
2023-01-13T11:00:29.659Z,100.00
2023-01-13T11:03:17.473Z,100.00
2023-01-13T11:05:54.115Z,100.00
2023-01-13T11:08:30.271Z,100.00
2023-01-13T11:11:04.954Z,100.00
2023-01-13T11:14:02.232Z,100.00
2023-01-13T11:16:38.178Z,100.00
2023-01-13T11:19:17.260Z,100.00
2023-01-13T11:21:57.543Z,100.00
2023-01-13T11:24:36.889Z,100.00
2023-01-13T11:27:17.857Z,100.00
2023-01-13T11:30:09.699Z,100.00
2023-01-13T11:33:02.352Z,100.00
2023-01-13T11:35:42.007Z,100.00
2023-01-13T11:38:28.600Z,100.00
2023-01-13T11:41:10.074Z,100.00
2023-01-13T11:43:53.127Z,100.00
2023-01-13T11:46:28.845Z,100.00
2023-01-13T11:49:02.837Z,99.51
2023-01-13T11:51:40.898Z,100.00
2023-01-13T11:54:33.086Z,100.00
2023-01-13T11:57:28.570Z,100.00
2023-01-13T12:00:27.067Z,99.48
2023-01-13T12:03:20.289Z,100.00
2023-01-13T12:06:18.519Z,100.00
2023-01-13T12:09:31.057Z,99.26
2023-01-13T12:12:20.362Z,100.00
2023-01-13T12:15:51.722Z,100.00
2023-01-13T12:18:44.287Z,100.00
2023-01-13T12:21:22.289Z,100.00
2023-01-13T12:24:14.731Z,100.00
2023-01-13T12:26:59.255Z,100.00
2023-01-13T12:29:36.272Z,100.00
2023-01-13T12:32:16.559Z,100.00
2023-01-13T12:35:02.380Z,98.77
2023-01-13T12:37:44.746Z,97.56
2023-01-13T12:40:35.934Z,96.77
2023-01-13T12:43:35.948Z,97.48
2023-01-13T12:46:53.072Z,95.88
2023-01-13T12:49:36.226Z,95.30
2023-01-13T12:52:19.960Z,96.10
2023-01-13T12:55:15.728Z,95.90
2023-01-13T12:58:17.415Z,95.35
2023-01-13T13:01:03.162Z,96.82
2023-01-13T13:03:37.474Z,97.45
2023-01-13T13:06:21.872Z,94.50
2023-01-13T13:09:04.096Z,92.57
2023-01-13T13:12:00.381Z,93.55
2023-01-13T13:15:06.826Z,93.87
2023-01-13T13:17:45.568Z,92.78
2023-01-13T13:21:02.905Z,92.69
2023-01-13T13:23:49.476Z,91.20
2023-01-13T13:26:31.788Z,90.90
2023-01-13T13:29:34.398Z,90.22
2023-01-13T13:32:48.505Z,88.73
2023-01-13T13:35:38.894Z,90.32
2023-01-13T13:39:11.412Z,89.03
2023-01-13T13:42:06.679Z,88.72
2023-01-13T13:44:59.755Z,87.28
2023-01-13T13:47:37.286Z,86.90
2023-01-13T13:50:15.421Z,87.20
2023-01-13T13:52:55.089Z,87.01
2023-01-13T13:55:30.866Z,87.85
2023-01-13T13:58:04.147Z,86.25
2023-01-13T14:00:39.704Z,86.43
2023-01-13T14:03:24.873Z,87.38
2023-01-13T14:06:01.100Z,85.79
2023-01-13T14:08:36.879Z,86.65
2023-01-13T14:11:27.517Z,83.40
2023-01-13T14:14:06.115Z,81.39
2023-01-13T14:16:41.228Z,80.93
2023-01-13T14:19:32.392Z,81.70
2023-01-13T14:22:06.158Z,83.63
2023-01-13T14:24:47.962Z,81.34
2023-01-13T14:27:24.401Z,81.91
2023-01-13T14:30:00.105Z,78.58
2023-01-13T14:32:36.499Z,77.84
2023-01-13T14:35:10.451Z,78.04
2023-01-13T14:37:46.124Z,77.15
2023-01-13T14:40:45.618Z,78.55
2023-01-13T14:43:24.293Z,77.56
2023-01-13T14:46:00.179Z,80.63
2023-01-13T14:48:36.214Z,84.01
2023-01-13T14:51:12.720Z,88.05
2023-01-13T14:53:48.522Z,89.43
2023-01-13T14:56:42.579Z,89.68
2023-01-13T14:59:45.074Z,92.94
2023-01-13T15:02:43.898Z,94.88
2023-01-13T15:05:37.507Z,95.72
2023-01-13T15:08:34.613Z,97.32
2023-01-13T15:11:21.931Z,98.50
2023-01-13T15:14:01.227Z,98.66
2023-01-13T15:16:36.853Z,97.82
2023-01-13T15:19:11.098Z,98.31
2023-01-13T15:21:44.188Z,98.89
2023-01-13T15:24:17.271Z,98.93
2023-01-13T15:26:50.374Z,99.70
2023-01-13T15:29:24.436Z,98.77
2023-01-13T15:31:58.936Z,99.84
2023-01-13T15:34:32.037Z,99.63
2023-01-13T15:37:05.116Z,99.57
2023-01-13T15:39:38.206Z,100.00
2023-01-13T15:42:40.269Z,99.53
2023-01-13T15:45:31.776Z,98.63
2023-01-13T15:48:07.028Z,99.54
2023-01-13T15:50:40.252Z,99.72
2023-01-13T15:53:15.296Z,99.54
2023-01-13T15:55:52.438Z,99.28
2023-01-13T15:58:28.497Z,99.23
2023-01-13T16:01:01.825Z,98.67
2023-01-13T16:03:36.346Z,98.65
2023-01-13T16:06:18.149Z,97.29
2023-01-13T16:08:51.359Z,97.41
2023-01-13T16:11:24.469Z,97.22
2023-01-13T16:13:57.573Z,98.52
2023-01-13T16:16:30.966Z,98.85
2023-01-13T16:19:05.450Z,99.19
2023-01-13T16:21:38.967Z,99.79
2023-01-13T16:24:12.073Z,99.84
2023-01-13T16:26:45.171Z,100.00
2023-01-13T16:29:18.444Z,100.00
2023-01-13T16:31:51.556Z,100.00
2023-01-13T16:34:26.108Z,100.00
2023-01-13T16:36:59.329Z,100.00
2023-01-13T16:39:32.420Z,100.00
2023-01-13T16:42:05.753Z,100.00
2023-01-13T16:44:38.805Z,100.00
2023-01-13T16:47:15.227Z,100.00
2023-01-13T16:49:49.692Z,100.00
2023-01-13T16:52:22.766Z,100.00
2023-01-13T16:54:55.811Z,100.00
2023-01-13T16:57:28.879Z,100.00
2023-01-13T17:00:01.951Z,100.00
2023-01-13T17:02:35.031Z,100.00
2023-01-13T17:05:12.635Z,100.00
2023-01-13T17:07:47.781Z,100.00
2023-01-13T17:10:24.140Z,100.00
2023-01-13T17:13:00.064Z,100.00
2023-01-13T17:15:35.804Z,100.00
2023-01-13T17:18:09.336Z,100.00
2023-01-13T17:20:43.773Z,100.00
2023-01-13T17:23:16.863Z,100.00
2023-01-13T17:25:49.914Z,100.00
2023-01-13T17:28:23.047Z,100.00
2023-01-13T17:30:56.071Z,100.00
2023-01-13T17:33:36.983Z,100.00
2023-01-13T17:36:11.461Z,100.00
2023-01-13T17:38:44.565Z,100.00
2023-01-13T17:41:17.652Z,100.00
2023-01-13T17:43:50.707Z,100.00
2023-01-13T17:46:24.259Z,100.00
2023-01-13T17:48:57.392Z,100.00
2023-01-13T17:51:31.799Z,100.00
2023-01-13T17:54:05.177Z,100.00
2023-01-13T17:56:38.256Z,100.00
2023-01-13T17:59:13.497Z,100.00
2023-01-13T18:01:47.413Z,100.00
2023-01-13T18:04:23.203Z,100.00
2023-01-13T18:06:57.923Z,100.00
2023-01-13T18:09:31.031Z,100.00
2023-01-13T18:12:04.495Z,100.00
2023-01-13T18:14:37.579Z,100.00
2023-01-13T18:17:11.184Z,97.36
2023-01-13T18:20:01.884Z,95.77
2023-01-13T18:22:54.041Z,96.41
2023-01-13T18:25:44.616Z,96.79
2023-01-13T18:28:17.682Z,97.88
2023-01-13T18:30:50.821Z,98.16
2023-01-13T18:33:25.231Z,98.13
2023-01-13T18:35:58.312Z,96.38
2023-01-13T18:38:32.788Z,96.37
2023-01-13T18:41:27.915Z,95.09
2023-01-13T18:43:59.990Z,93.21
2023-01-13T18:46:33.493Z,91.49
2023-01-13T18:49:06.566Z,91.30
2023-01-13T18:51:39.918Z,90.75
2023-01-13T18:54:14.337Z,90.14
2023-01-13T18:56:49.254Z,90.30
2023-01-13T18:59:22.276Z,90.11
2023-01-13T19:01:55.610Z,91.27
2023-01-13T19:04:28.756Z,91.29
2023-01-13T19:07:01.880Z,89.30
2023-01-13T19:09:36.265Z,89.68
2023-01-13T19:12:11.984Z,89.25
2023-01-13T19:14:45.013Z,89.97
2023-01-13T19:17:18.072Z,90.55
2023-01-13T19:19:53.723Z,89.83
2023-01-13T19:22:30.199Z,90.15
2023-01-13T19:25:05.686Z,88.50
2023-01-13T19:27:39.829Z,89.53
2023-01-13T19:30:14.911Z,89.66
2023-01-13T19:32:47.943Z,88.53
2023-01-13T19:35:21.048Z,88.38
2023-01-13T19:37:54.326Z,87.83
2023-01-13T19:40:28.717Z,88.69
2023-01-13T19:43:19.460Z,88.44
2023-01-13T19:45:52.512Z,88.35
2023-01-13T19:48:26.181Z,87.10
2023-01-13T19:51:00.856Z,87.13
2023-01-13T19:53:34.576Z,86.77
2023-01-13T19:56:13.691Z,87.91
2023-01-13T19:58:50.696Z,86.98
2023-01-13T20:01:31.606Z,87.29
2023-01-13T20:04:07.489Z,87.59
2023-01-13T20:06:40.570Z,88.08
2023-01-13T20:09:13.812Z,87.29
2023-01-13T20:11:52.613Z,87.88
2023-01-13T20:14:26.648Z,87.82
2023-01-13T20:17:00.457Z,88.89
2023-01-13T20:19:33.554Z,88.53
2023-01-13T20:22:06.999Z,89.12
2023-01-13T20:24:40.108Z,89.15
2023-01-13T20:27:14.624Z,88.19
2023-01-13T20:29:47.833Z,90.07
2023-01-13T20:32:20.902Z,90.06
2023-01-13T20:34:53.964Z,90.01
2023-01-13T20:37:27.678Z,91.30
2023-01-13T20:40:01.819Z,90.38
2023-01-13T20:42:44.669Z,90.95
2023-01-13T20:45:20.884Z,91.24
2023-01-13T20:47:55.417Z,91.42
2023-01-13T20:50:28.440Z,90.43
2023-01-13T20:53:01.499Z,91.02
2023-01-13T20:55:34.567Z,90.99
2023-01-13T20:58:08.975Z,94.11
2023-01-13T21:00:42.024Z,95.63
2023-01-13T21:03:15.291Z,96.94
2023-01-13T21:05:48.339Z,99.36
2023-01-13T21:08:21.369Z,100.00
2023-01-13T21:11:03.678Z,100.00
2023-01-13T21:13:56.310Z,100.00
2023-01-13T21:16:29.560Z,100.00
2023-01-13T21:19:07.450Z,100.00
2023-01-13T21:21:40.725Z,100.00
2023-01-13T21:24:14.014Z,100.00
2023-01-13T21:26:47.209Z,100.00
2023-01-13T21:29:22.958Z,100.00
2023-01-13T21:31:56.081Z,100.00
2023-01-13T21:34:29.212Z,100.00
2023-01-13T21:37:02.318Z,100.00
2023-01-13T21:39:35.396Z,100.00
2023-01-13T21:42:26.298Z,100.00
2023-01-13T21:45:18.587Z,100.00
2023-01-13T21:47:52.064Z,100.00
2023-01-13T21:50:28.000Z,100.00
2023-01-13T21:53:01.063Z,100.00
2023-01-13T21:55:34.587Z,100.00
2023-01-13T21:58:12.970Z,100.00
2023-01-13T22:00:49.123Z,100.00
2023-01-13T22:03:22.438Z,100.00
2023-01-13T22:05:56.504Z,100.00
2023-01-13T22:08:30.362Z,100.00
2023-01-13T22:11:04.005Z,100.00
2023-01-13T22:13:54.582Z,100.00
2023-01-13T22:16:29.286Z,100.00
2023-01-13T22:19:02.555Z,100.00
2023-01-13T22:21:36.180Z,100.00
2023-01-13T22:24:09.864Z,100.00
2023-01-13T22:26:43.028Z,100.00
2023-01-13T22:29:16.358Z,100.00
2023-01-13T22:31:50.868Z,100.00
2023-01-13T22:34:24.152Z,100.00
2023-01-13T22:36:57.322Z,100.00
2023-01-13T22:39:31.066Z,100.00
2023-01-13T22:42:04.737Z,100.00
2023-01-13T22:44:37.787Z,100.00
2023-01-13T22:47:12.223Z,100.00
2023-01-13T22:49:47.719Z,100.00
2023-01-13T22:52:22.370Z,100.00
2023-01-13T22:54:55.797Z,100.00
2023-01-13T22:57:35.985Z,100.00
2023-01-13T23:00:14.930Z,100.00
2023-01-13T23:02:49.549Z,100.00
2023-01-13T23:05:22.643Z,100.00
2023-01-13T23:07:55.700Z,100.00
2023-01-13T23:10:28.783Z,100.00
2023-01-13T23:13:01.995Z,100.00
2023-01-13T23:15:36.488Z,100.00
2023-01-13T23:18:10.938Z,100.00
2023-01-13T23:20:43.989Z,100.00
2023-01-13T23:23:17.070Z,100.00
2023-01-13T23:25:51.202Z,100.00
2023-01-13T23:28:24.471Z,100.00
2023-01-13T23:30:57.824Z,100.00
2023-01-13T23:33:32.316Z,100.00
2023-01-13T23:36:09.270Z,100.00
2023-01-13T23:38:43.053Z,100.00
2023-01-13T23:41:20.073Z,100.00
2023-01-13T23:43:55.659Z,100.00
2023-01-13T23:46:30.722Z,100.00
2023-01-13T23:49:05.373Z,100.00
2023-01-13T23:51:38.477Z,100.00
2023-01-13T23:54:11.532Z,100.00
2023-01-13T23:56:44.944Z,100.00
2023-01-13T23:59:18.016Z,100.00
